Time;durP1;ratioP1;P1;durP2;ratioP2;P2;SDS_P1;SDS_P2;PMS_P1;PMS_P2;Temp;Humidity;BMP_temperature;BMP_pressure;BME280_temperature;BME280_humidity;BME280_pressure;Samples;Min_cycle;Max_cycle;Signal;HPM_P1;HPM_P2
2021/11/12 00:11:50;;;;;;;86.20;15.30;;;29.60;79.40;;;;;;5147005;27;20022;-51
2021/11/12 00:13:18;;;;;;;29.35;10.15;;;29.60;79.30;;;;;;5146851;27;20057;-57
2021/11/12 00:15:52;;;;;;;;;;;29.60;79.20;;;;;;5146696;27;20019;-45
2021/11/12 00:18:22;;;;;;;34.10;10.02;;;29.60;79.40;;;;;;5146586;27;19908;-50
2021/11/12 00:20:49;;;;;;;26.45;9.25;;;29.50;79.30;;;;;;5146011;27;20075;-53
2021/11/12 00:23:16;;;;;;;34.05;9.30;;;29.50;79.30;;;;;;5145750;27;20379;-50
2021/11/12 00:25:43;;;;;;;40.25;9.68;;;29.50;79.30;;;;;;5146459;27;20095;-46
2021/11/12 00:28:12;;;;;;;36.83;8.57;;;29.50;79.50;;;;;;5146401;27;20315;-49
2021/11/12 00:31:04;;;;;;;32.95;8.68;;;29.50;79.50;;;;;;5146386;27;20027;-51
2021/11/12 00:36:30;;;;;;;36.00;9.35;;;29.40;79.50;;;;;;5146131;27;20012;-45
2021/11/12 00:39:05;;;;;;;28.75;9.43;;;29.40;79.60;;;;;;5138351;27;20027;-50
2021/11/12 00:44:37;;;;;;;27.38;9.02;;;29.40;79.80;;;;;;5090544;27;20108;-47
2021/11/12 00:47:08;;;;;;;26.00;8.32;;;29.30;79.70;;;;;;5146137;27;20026;-49
2021/11/12 00:49:39;;;;;;;23.80;8.98;;;29.40;80.00;;;;;;5146187;27;20069;-53
2021/11/12 00:52:12;;;;;;;28.60;9.07;;;29.30;80.00;;;;;;5145837;27;20335;-45
2021/11/12 00:54:39;;;;;;;27.15;8.75;;;29.30;80.20;;;;;;5144634;27;20058;-45
2021/11/12 00:57:07;;;;;;;36.13;8.55;;;29.30;80.30;;;;;;5145552;27;20018;-45
2021/11/12 00:59:34;;;;;;;29.75;7.95;;;29.30;80.30;;;;;;5146166;27;20026;-46
2021/11/12 01:02:00;;;;;;;21.08;7.57;;;29.30;80.30;;;;;;5145625;27;20082;-50
2021/11/12 01:04:27;;;;;;;18.95;8.13;;;29.30;80.40;;;;;;5146408;27;20027;-48
2021/11/12 01:06:53;;;;;;;27.73;14.80;;;29.20;80.20;;;;;;5146033;27;20019;-44
2021/11/12 01:09:22;;;;;;;31.75;13.95;;;29.30;80.10;;;;;;5146281;27;20083;-44
2021/11/12 01:11:50;;;;;;;19.67;9.93;;;29.20;80.00;;;;;;5145872;27;20029;-51
2021/11/12 01:14:24;;;;;;;16.60;8.57;;;29.30;79.90;;;;;;5145963;27;20034;-49
2021/11/12 01:16:51;;;;;;;18.65;8.43;;;29.20;79.70;;;;;;5145657;27;20015;-49
2021/11/12 01:19:18;;;;;;;21.92;7.93;;;29.30;79.80;;;;;;5144620;27;20315;-51
2021/11/12 01:21:46;;;;;;;13.07;7.00;;;29.20;79.70;;;;;;5145841;27;20023;-53
2021/11/12 01:24:12;;;;;;;16.77;6.78;;;29.20;79.60;;;;;;5144732;27;20031;-46
2021/11/12 01:26:39;;;;;;;15.82;7.00;;;29.20;79.50;;;;;;5145785;27;20019;-51
2021/11/12 01:29:06;;;;;;;15.35;6.95;;;29.20;79.50;;;;;;5145968;27;20023;-47
2021/11/12 01:31:33;;;;;;;15.40;6.55;;;29.10;79.40;;;;;;5145704;27;20019;-47
2021/11/12 01:34:07;;;;;;;22.27;6.63;;;29.20;79.40;;;;;;5145822;27;20019;-54
2021/11/12 01:36:38;;;;;;;14.73;6.20;;;29.10;79.30;;;;;;5145400;27;20050;-52
2021/11/12 01:39:15;;;;;;;16.25;6.57;;;29.10;79.30;;;;;;5145828;27;20094;-52
2021/11/12 01:41:48;;;;;;;13.90;6.40;;;29.10;79.30;;;;;;5145389;27;20015;-49
2021/11/12 01:44:16;;;;;;;17.65;6.72;;;29.10;79.30;;;;;;5145855;27;20034;-48
2021/11/12 01:52:09;;;;;;;11.07;6.43;;;29.00;79.10;;;;;;5152525;27;20110;-51
2021/11/12 01:54:51;;;;;;;18.92;7.10;;;29.10;79.20;;;;;;5152961;27;20187;-51
2021/11/12 01:57:34;;;;;;;14.77;7.15;;;29.00;79.20;;;;;;5152381;27;20042;-49
2021/11/12 02:00:02;;;;;;;20.10;7.22;;;29.00;79.30;;;;;;5151872;27;20023;-57
2021/11/12 02:02:29;;;;;;;17.15;7.28;;;29.00;79.20;;;;;;5151999;27;20315;-44
2021/11/12 02:04:56;;;;;;;18.88;7.15;;;29.00;79.20;;;;;;5152137;27;20094;-52
2021/11/12 02:07:22;;;;;;;22.52;7.22;;;29.00;79.10;;;;;;5151966;27;20026;-52
2021/11/12 02:09:49;;;;;;;11.57;5.93;;;28.90;79.10;;;;;;5152751;27;20068;-53
2021/11/12 02:14:45;;;;;;;17.10;6.90;;;28.90;79.00;;;;;;5152743;27;20042;-55
2021/11/12 02:17:19;;;;;;;23.85;6.80;;;28.90;79.10;;;;;;5150797;27;20094;-51
2021/11/12 02:19:50;;;;;;;19.45;6.72;;;28.90;79.00;;;;;;5152283;27;20086;-52
2021/11/12 02:22:17;;;;;;;16.13;6.28;;;29.00;79.00;;;;;;5151963;27;20015;-51
2021/11/12 02:24:51;;;;;;;15.98;6.70;;;28.90;78.80;;;;;;5152433;27;20058;-52
2021/11/12 02:27:21;;;;;;;15.57;5.88;;;28.90;78.80;;;;;;5151759;27;20054;-54
2021/11/12 02:29:55;;;;;;;19.35;6.40;;;28.90;78.80;;;;;;5152236;27;20027;-54
2021/11/12 02:32:30;;;;;;;22.10;7.07;;;28.90;78.80;;;;;;5151277;27;20066;-53
2021/11/12 02:34:59;;;;;;;27.45;7.30;;;28.90;78.70;;;;;;5151518;27;20034;-48
2021/11/12 02:37:29;;;;;;;33.60;7.03;;;28.90;78.80;;;;;;5151693;27;20011;-50
2021/11/12 02:39:56;;;;;;;12.93;5.80;;;28.90;78.70;;;;;;5151774;27;20023;-48
2021/11/12 02:42:23;;;;;;;16.63;6.30;;;28.80;78.60;;;;;;5151997;27;20018;-59
2021/11/12 02:44:52;;;;;;;14.15;6.30;;;28.80;78.60;;;;;;5152159;27;20115;-55
2021/11/12 02:47:20;;;;;;;17.55;6.38;;;28.80;78.40;;;;;;5151993;27;20015;-48
2021/11/12 02:49:47;;;;;;;15.80;6.07;;;28.80;78.40;;;;;;5152138;27;20034;-46
2021/11/12 02:52:19;;;;;;;18.88;6.30;;;28.80;78.30;;;;;;5151309;27;20050;-49
2021/11/12 02:54:46;;;;;;;13.77;5.90;;;28.80;78.20;;;;;;5152132;27;20022;-50
2021/11/12 02:57:13;;;;;;;16.02;5.63;;;28.70;78.10;;;;;;5148839;27;20015;-43
2021/11/12 02:59:40;;;;;;;10.98;5.72;;;28.70;78.10;;;;;;5148599;27;20322;-48
2021/11/12 03:02:08;;;;;;;13.88;5.57;;;28.70;78.00;;;;;;5148002;27;20015;-46
2021/11/12 03:04:35;;;;;;;15.98;5.80;;;28.70;77.90;;;;;;5148676;27;20031;-47
2021/11/12 03:07:02;;;;;;;18.52;5.57;;;28.70;77.80;;;;;;5148419;27;20015;-45
2021/11/12 03:09:31;;;;;;;14.77;5.47;;;28.70;77.80;;;;;;5148744;27;20248;-49
2021/11/12 03:11:59;;;;;;;14.93;5.90;;;28.70;77.80;;;;;;5148287;27;20053;-46
2021/11/12 03:14:25;;;;;;;14.20;5.47;;;28.70;77.60;;;;;;5148653;27;20353;-46
2021/11/12 03:16:53;;;;;;;11.57;5.68;;;28.70;77.40;;;;;;5147945;27;20060;-53
2021/11/12 03:19:24;;;;;;;11.73;5.40;;;28.60;77.30;;;;;;5148048;27;20023;-49
2021/11/12 03:21:56;;;;;;;13.85;5.45;;;28.60;77.30;;;;;;5147758;27;20027;-48
2021/11/12 03:24:29;;;;;;;15.80;5.40;;;28.60;77.00;;;;;;5148073;27;20035;-46
2021/11/12 03:27:10;;;;;;;8.55;4.85;;;28.60;77.00;;;;;;5147624;27;20083;-46
2021/11/12 03:30:01;;;;;;;14.45;5.20;;;28.60;76.80;;;;;;5148237;27;20027;-55
2021/11/12 04:18:49;;;;;;;10.80;4.55;;;28.30;74.80;;;;;;5146985;27;20244;-53
2021/11/12 04:21:41;;;;;;;8.35;4.45;;;28.30;74.30;;;;;;5147111;27;20078;-53
2021/11/12 05:55:04;;;;;;;6.20;3.92;;;27.70;73.80;;;;;;5145018;28;20050;-47
2021/11/12 05:57:32;;;;;;;9.38;4.03;;;27.70;73.10;;;;;;5144731;28;20018;-46
2021/11/12 05:59:58;;;;;;;9.27;3.67;;;27.60;72.60;;;;;;5144919;27;20078;-46
2021/11/12 06:02:25;;;;;;;11.70;4.35;;;27.60;72.00;;;;;;5144971;27;20037;-48
2021/11/12 06:04:52;;;;;;;6.53;3.42;;;27.60;72.00;;;;;;5145729;27;20023;-49
2021/11/12 06:07:19;;;;;;;10.73;3.90;;;27.60;71.70;;;;;;5144815;27;20081;-50
2021/11/12 06:09:46;;;;;;;6.97;3.30;;;27.60;71.60;;;;;;5145450;27;20167;-50
2021/11/12 06:12:13;;;;;;;8.95;3.60;;;27.60;71.40;;;;;;5144896;27;20046;-49
2021/11/12 06:14:41;;;;;;;6.03;3.20;;;27.60;71.20;;;;;;5145183;27;20300;-47
2021/11/12 06:17:08;;;;;;;6.78;3.50;;;27.60;71.40;;;;;;5144950;27;20018;-43
2021/11/12 06:19:35;;;;;;;10.80;3.80;;;27.60;71.00;;;;;;5145342;27;20128;-49
2021/11/12 06:22:01;;;;;;;8.73;3.80;;;27.60;71.20;;;;;;5145229;27;20030;-44
2021/11/12 06:24:29;;;;;;;7.95;3.60;;;27.50;71.10;;;;;;5145532;27;20030;-51
2021/11/12 06:26:56;;;;;;;6.95;3.50;;;27.60;71.10;;;;;;5144791;28;20189;-44
2021/11/12 06:29:23;;;;;;;7.68;3.22;;;27.50;71.10;;;;;;5145310;27;20075;-48
2021/11/12 06:31:50;;;;;;;10.65;3.78;;;27.50;71.10;;;;;;5145344;27;20019;-44
2021/11/12 06:34:16;;;;;;;8.75;3.67;;;27.50;71.20;;;;;;5148662;27;20276;-47
2021/11/12 06:36:43;;;;;;;7.57;3.40;;;27.50;71.10;;;;;;5148870;27;20174;-54
2021/11/12 06:39:10;;;;;;;10.05;3.90;;;27.50;71.20;;;;;;5149017;27;20031;-48
2021/11/12 06:52:13;;;;;;;6.63;3.33;;;27.50;71.50;;;;;;5148350;27;20098;-47
2021/11/12 06:54:41;;;;;;;6.28;3.78;;;27.50;71.30;;;;;;5148570;27;20361;-52
2021/11/12 06:57:08;;;;;;;8.32;3.67;;;27.50;71.20;;;;;;5148231;27;20023;-46
2021/11/12 06:59:34;;;;;;;8.05;3.72;;;27.40;71.20;;;;;;5148477;27;20027;-49
2021/11/12 07:02:01;;;;;;;5.40;3.35;;;27.40;71.00;;;;;;5148108;27;20084;-49
2021/11/12 07:04:27;;;;;;;7.25;3.53;;;27.40;71.00;;;;;;5148594;27;20035;-50
2021/11/12 07:06:54;;;;;;;7.25;3.60;;;27.40;71.20;;;;;;5147953;27;20042;-48
2021/11/12 07:09:21;;;;;;;5.40;3.42;;;27.40;71.30;;;;;;5148523;27;20148;-49
2021/11/12 07:11:47;;;;;;;5.18;3.55;;;27.40;71.70;;;;;;5147891;27;20023;-48
2021/11/12 07:14:15;;;;;;;7.40;3.13;;;27.30;71.60;;;;;;5148202;27;20015;-46
2021/11/12 07:16:42;;;;;;;6.18;3.70;;;27.30;71.90;;;;;;5147997;27;20027;-46
2021/11/12 07:19:09;;;;;;;7.28;3.88;;;27.30;72.70;;;;;;5139824;27;20023;-51
2021/11/12 07:21:36;;;;;;;7.28;4.15;;;27.30;72.40;;;;;;5148232;27;20091;-51
2021/11/12 07:24:03;;;;;;;8.02;3.40;;;27.30;72.70;;;;;;5148172;27;20026;-48
2021/11/12 07:26:30;;;;;;;6.18;3.58;;;27.30;72.80;;;;;;5148106;27;20176;-47
2021/11/12 07:28:57;;;;;;;7.18;3.83;;;27.30;73.00;;;;;;5148362;27;20023;-53
2021/11/12 07:31:24;;;;;;;9.27;3.70;;;27.20;73.30;;;;;;5147494;27;20018;-49
2021/11/12 07:33:52;;;;;;;8.10;4.30;;;27.20;73.50;;;;;;5147996;27;20027;-51
2021/11/12 07:36:21;;;;;;;9.38;4.55;;;27.20;74.10;;;;;;5147534;27;20027;-50
2021/11/12 07:39:05;;;;;;;8.23;4.55;;;27.20;74.40;;;;;;5147377;27;20318;-54
2021/11/12 07:44:21;;;;;;;8.55;4.28;;;27.20;75.10;;;;;;5147398;27;20015;-44
2021/11/12 07:49:33;;;;;;;8.75;4.75;;;27.10;75.80;;;;;;5147778;27;20104;-55
2021/11/12 07:52:00;;;;;;;11.95;5.25;;;27.10;76.00;;;;;;5147268;27;20039;-50
2021/11/12 07:54:26;;;;;;;11.85;4.65;;;27.10;76.10;;;;;;5147455;27;20030;-53
2021/11/12 07:56:53;;;;;;;11.07;4.50;;;27.10;76.80;;;;;;5147043;27;20026;-54
2021/11/12 07:59:20;;;;;;;9.85;4.60;;;27.10;76.10;;;;;;5147821;27;20224;-54
2021/11/12 08:01:46;;;;;;;9.05;4.20;;;27.00;76.10;;;;;;5147068;27;20064;-51
2021/11/12 08:04:13;;;;;;;8.75;4.72;;;27.00;76.30;;;;;;5147299;27;20027;-53
2021/11/12 08:06:40;;;;;;;13.00;5.03;;;27.00;76.20;;;;;;5146917;27;20019;-54
2021/11/12 08:11:43;;;;;;;8.52;4.45;;;27.00;76.10;;;;;;5146710;27;20008;-54
2021/11/12 08:14:12;;;;;;;16.00;5.32;;;27.00;76.30;;;;;;5146981;27;20023;-53
2021/11/12 08:17:17;;;;;;;10.02;4.85;;;27.00;76.40;;;;;;5146814;27;20027;-51
2021/11/12 08:19:43;;;;;;;9.80;4.47;;;27.00;76.50;;;;;;5145229;27;20034;-53
2021/11/12 08:43:14;;;;;;;16.40;6.85;;;26.90;75.00;;;;;;5146697;27;20155;-47
2021/11/12 08:45:45;;;;;;;20.17;7.05;;;26.90;74.90;;;;;;5146173;27;20079;-45
2021/11/12 08:48:19;;;;;;;18.83;6.53;;;26.90;74.70;;;;;;5146524;27;20260;-46
2021/11/12 08:50:46;;;;;;;18.17;5.78;;;26.90;74.50;;;;;;5146207;27;20019;-50
2021/11/12 08:53:15;;;;;;;18.27;6.35;;;26.90;74.50;;;;;;5146131;27;20084;-44
2021/11/12 08:55:44;;;;;;;11.00;5.82;;;26.90;74.50;;;;;;5145222;27;20037;-45
2021/11/12 08:58:13;;;;;;;11.52;5.70;;;26.90;74.10;;;;;;5146517;27;20196;-44
2021/11/12 09:00:42;;;;;;;13.65;5.65;;;26.90;74.00;;;;;;5146087;27;20347;-43
2021/11/12 09:03:09;;;;;;;10.82;4.80;;;26.90;73.80;;;;;;5145853;27;20104;-53
2021/11/12 09:05:36;;;;;;;12.18;5.05;;;26.80;73.70;;;;;;5145722;27;20026;-46
2021/11/12 09:08:03;;;;;;;11.60;4.55;;;26.80;73.70;;;;;;5146050;27;20023;-50
2021/11/12 09:10:31;;;;;;;13.88;5.47;;;26.80;73.70;;;;;;5145750;27;20019;-46
2021/11/12 09:13:05;;;;;;;13.20;5.15;;;26.80;73.70;;;;;;5146042;27;20027;-47
2021/11/12 09:15:33;;;;;;;10.38;5.07;;;26.80;73.70;;;;;;5145553;27;20087;-50
2021/11/12 09:18:02;;;;;;;10.55;4.97;;;26.80;73.40;;;;;;5145863;27;20051;-52
2021/11/12 09:20:29;;;;;;;12.27;5.15;;;26.90;73.70;;;;;;5145928;27;20042;-46
2021/11/12 09:22:58;;;;;;;16.50;5.43;;;26.80;73.60;;;;;;5145634;27;20034;-48
2021/11/12 09:25:26;;;;;;;18.17;5.32;;;26.80;73.40;;;;;;5145769;27;20330;-48
2021/11/12 09:27:52;;;;;;;11.32;5.13;;;26.80;73.50;;;;;;5145711;27;20186;-45
2021/11/12 09:30:25;;;;;;;9.13;4.95;;;26.80;73.50;;;;;;5145285;27;20019;-48
2021/11/12 09:32:54;;;;;;;;;;;26.80;73.60;;;;;;5146071;27;20027;-53
2021/11/12 09:35:22;;;;;;;15.80;5.05;;;26.80;73.40;;;;;;5145096;27;19899;-53
2021/11/12 09:37:49;;;;;;;12.02;4.80;;;26.80;73.70;;;;;;5145040;27;20035;-49
2021/11/12 09:40:16;;;;;;;11.88;5.50;;;26.80;73.50;;;;;;5145654;27;20283;-50
2021/11/12 09:42:43;;;;;;;14.63;5.30;;;26.80;73.50;;;;;;5145100;27;20023;-45
2021/11/12 09:45:11;;;;;;;9.20;4.55;;;26.70;73.50;;;;;;5145242;27;20086;-48
2021/11/12 09:47:40;;;;;;;11.55;5.40;;;26.70;73.50;;;;;;5145179;27;20245;-51
2021/11/12 09:50:13;;;;;;;10.13;4.88;;;26.70;73.20;;;;;;5145182;27;20030;-47
2021/11/12 09:52:43;;;;;;;12.88;4.97;;;26.70;73.30;;;;;;5145446;27;20055;-50
2021/11/12 09:55:11;;;;;;;8.95;4.43;;;26.70;73.60;;;;;;5145514;27;20021;-54
2021/11/12 09:57:39;;;;;;;8.30;4.13;;;26.70;73.90;;;;;;5145396;27;20015;-49
2021/11/12 10:00:11;;;;;;;11.82;5.03;;;26.70;73.20;;;;;;5145318;27;20042;-53
2021/11/12 10:02:43;;;;;;;13.95;5.22;;;26.70;73.10;;;;;;5145074;27;20108;-50
2021/11/12 10:05:12;;;;;;;8.13;4.57;;;26.70;72.90;;;;;;5145032;27;20023;-45
2021/11/12 10:07:39;;;;;;;9.15;4.43;;;26.70;72.70;;;;;;5148802;27;20019;-49
2021/11/12 10:10:10;;;;;;;9.85;4.57;;;26.70;72.50;;;;;;5149494;27;20071;-49
2021/11/12 10:12:46;;;;;;;10.27;4.70;;;26.70;72.60;;;;;;5149065;27;20196;-45
2021/11/12 10:15:19;;;;;;;7.55;4.38;;;26.70;72.10;;;;;;5148943;27;20023;-51
2021/11/12 10:17:48;;;;;;;10.07;4.90;;;26.70;71.90;;;;;;5149151;27;20038;-49
2021/11/12 10:20:18;;;;;;;10.10;4.53;;;26.70;71.70;;;;;;5149241;27;20082;-47
2021/11/12 10:22:47;;;;;;;11.18;4.85;;;26.80;71.40;;;;;;5148808;27;20042;-52
2021/11/12 10:25:15;;;;;;;8.07;4.47;;;26.70;71.10;;;;;;5149318;27;20061;-53
2021/11/12 10:27:50;;;;;;;10.98;4.32;;;26.70;70.80;;;;;;5149025;27;20027;-50
2021/11/12 10:30:22;;;;;;;11.70;3.95;;;26.70;70.60;;;;;;5148549;27;20027;-53
2021/11/12 10:32:49;;;;;;;;;;;26.80;70.60;;;;;;5149129;27;20042;-55
2021/11/12 10:35:28;;;;;;;13.75;4.30;;;26.70;70.30;;;;;;5148493;27;19969;-53
2021/11/12 10:38:05;;;;;;;11.35;3.97;;;26.70;70.00;;;;;;5148341;27;20319;-52
2021/11/12 10:40:32;;;;;;;7.72;3.67;;;26.70;69.70;;;;;;5148467;27;20023;-51
2021/11/12 10:42:59;;;;;;;8.73;4.60;;;26.70;69.50;;;;;;5148361;27;20019;-50
2021/11/12 10:45:36;;;;;;;12.40;4.45;;;26.70;69.40;;;;;;5148308;27;20217;-49
2021/11/12 10:48:08;;;;;;;9.50;4.43;;;26.70;69.30;;;;;;5148485;27;20237;-49
2021/11/12 10:50:38;;;;;;;28.70;4.82;;;26.70;69.60;;;;;;5148253;27;20141;-50
2021/11/12 10:53:13;;;;;;;35.25;6.03;;;26.70;69.70;;;;;;5147949;27;20050;-54
2021/11/12 10:55:40;;;;;;;19.55;5.15;;;26.70;69.90;;;;;;5148079;27;20082;-51
2021/11/12 10:58:11;;;;;;;21.92;6.18;;;26.60;70.00;;;;;;5148648;27;20019;-55
2021/11/12 11:00:44;;;;;;;25.13;6.28;;;26.70;70.50;;;;;;5148357;27;20024;-50
2021/11/12 11:03:16;;;;;;;31.50;6.57;;;26.70;70.70;;;;;;5148521;27;20026;-53
2021/11/12 11:05:45;;;;;;;33.13;6.03;;;26.70;70.80;;;;;;5147996;27;20046;-53
2021/11/12 11:08:14;;;;;;;36.97;6.78;;;26.70;70.90;;;;;;5147904;27;20140;-54
2021/11/12 11:10:49;;;;;;;29.45;6.47;;;26.60;70.80;;;;;;5147846;27;20023;-48
2021/11/12 11:13:22;;;;;;;25.35;6.40;;;26.60;71.00;;;;;;5147756;27;20086;-53
2021/11/12 11:15:54;;;;;;;22.35;5.97;;;26.60;70.80;;;;;;5147128;27;20038;-44
2021/11/12 11:18:40;;;;;;;18.67;6.07;;;26.70;70.70;;;;;;5146616;27;20026;-47
2021/11/12 11:24:07;;;;;;;27.42;7.15;;;26.70;71.00;;;;;;5139219;27;20341;-49
2021/11/12 11:26:43;;;;;;;22.38;6.55;;;26.70;70.80;;;;;;5148080;27;20019;-44
2021/11/12 11:29:20;;;;;;;21.30;6.05;;;26.80;70.70;;;;;;5147893;27;20065;-47
2021/11/12 11:31:47;;;;;;;19.60;6.18;;;26.80;70.80;;;;;;5147981;27;20022;-47
2021/11/12 11:34:13;;;;;;;18.38;5.38;;;26.80;70.70;;;;;;5147753;27;20023;-44
2021/11/12 11:36:45;;;;;;;16.55;5.95;;;26.80;70.60;;;;;;5148410;27;20019;-47
2021/11/12 11:39:15;;;;;;;16.73;4.88;;;26.80;70.80;;;;;;5147705;27;20019;-49
2021/11/12 11:41:46;;;;;;;17.38;4.88;;;26.80;71.00;;;;;;5148036;27;20034;-51
2021/11/12 11:44:15;;;;;;;25.52;5.68;;;26.80;71.00;;;;;;5148016;27;20023;-49
2021/11/12 11:46:45;;;;;;;19.42;5.32;;;26.90;71.00;;;;;;5147699;27;20108;-47
2021/11/12 11:49:23;;;;;;;18.85;5.43;;;26.90;71.10;;;;;;5147934;27;20023;-53
2021/11/12 11:51:59;;;;;;;20.30;5.63;;;27.00;71.40;;;;;;5147480;27;20047;-46
2021/11/12 11:54:35;;;;;;;11.73;5.35;;;27.00;71.60;;;;;;5147565;27;20026;-53
2021/11/12 11:57:13;;;;;;;11.88;4.75;;;27.00;71.50;;;;;;5147645;27;20019;-53
2021/11/12 11:59:41;;;;;;;18.42;4.97;;;27.10;71.70;;;;;;5147733;27;20015;-49
2021/11/12 12:02:15;;;;;;;24.60;5.15;;;27.10;71.70;;;;;;5147534;27;20263;-48
2021/11/12 12:04:49;;;;;;;11.48;5.13;;;27.10;71.60;;;;;;5148039;27;20026;-47
2021/11/12 12:07:30;;;;;;;21.08;5.40;;;27.20;71.80;;;;;;5147434;27;20027;-45
2021/11/12 12:10:17;;;;;;;25.73;4.63;;;27.20;71.80;;;;;;5147537;27;20328;-43
2021/11/12 12:12:49;;;;;;;15.27;4.32;;;27.20;72.10;;;;;;5146829;27;20038;-43
2021/11/12 12:15:16;;;;;;;;;;;27.20;72.10;;;;;;5147071;27;20028;-45
2021/11/12 12:17:46;;;;;;;16.83;4.43;;;27.30;72.10;;;;;;5146760;27;19900;-46
2021/11/12 13:25:54;;;;;;;16.30;5.32;;;27.70;74.30;;;;;;5145792;27;20027;-53
2021/11/12 13:28:26;;;;;;;14.45;4.45;;;27.70;74.30;;;;;;5146204;27;20019;-47
2021/11/12 13:30:55;;;;;;;24.67;4.93;;;27.70;73.60;;;;;;5145703;27;20168;-53
2021/11/12 13:33:31;;;;;;;18.48;4.90;;;27.80;72.80;;;;;;5145358;27;20296;-51
2021/11/12 13:36:09;;;;;;;13.48;4.32;;;27.80;73.00;;;;;;5145788;27;20098;-51
2021/11/12 13:38:38;;;;;;;13.15;3.97;;;27.90;73.20;;;;;;5145992;27;20022;-50
2021/11/12 13:41:07;;;;;;;13.50;4.32;;;27.90;73.10;;;;;;5145327;27;20027;-55
2021/11/12 13:43:38;;;;;;;11.38;4.00;;;27.90;73.10;;;;;;5145984;27;20247;-48
2021/11/12 13:46:05;;;;;;;6.78;3.67;;;27.90;73.00;;;;;;5145590;27;20034;-52
2021/11/12 13:48:52;;;;;;;19.00;4.40;;;27.90;72.90;;;;;;5145922;27;20192;-52
2021/11/12 13:51:31;;;;;;;17.55;4.05;;;27.90;72.40;;;;;;5145571;27;20031;-52
2021/11/12 13:53:59;;;;;;;12.52;3.50;;;28.00;72.20;;;;;;5146121;27;20019;-54
2021/11/12 13:56:26;;;;;;;8.95;3.33;;;28.00;72.10;;;;;;5145015;27;20020;-54
2021/11/12 13:59:13;;;;;;;10.68;3.45;;;28.00;71.30;;;;;;5145092;27;20075;-52
2021/11/12 14:01:40;;;;;;;10.65;3.75;;;28.00;70.80;;;;;;5145718;27;20011;-46
2021/11/12 14:04:27;;;;;;;10.88;3.30;;;28.10;70.80;;;;;;5145221;27;20275;-46
2021/11/12 14:06:55;;;;;;;5.93;2.90;;;28.10;70.60;;;;;;5145635;27;20025;-50
2021/11/12 14:09:26;;;;;;;8.80;2.80;;;28.10;70.10;;;;;;5145712;27;20019;-49
2021/11/12 14:12:13;;;;;;;13.52;3.60;;;28.10;70.20;;;;;;5145404;27;20026;-48
2021/11/12 14:14:43;;;;;;;8.57;2.83;;;28.20;70.10;;;;;;5146046;27;20090;-47
2021/11/12 14:17:26;;;;;;;10.38;3.20;;;28.20;69.80;;;;;;5145000;27;20329;-51
2021/11/12 14:20:16;;;;;;;;;;;28.20;69.90;;;;;;5145753;27;20023;-50
2021/11/12 14:22:48;;;;;;;12.63;3.88;;;28.20;69.80;;;;;;5144913;27;19903;-48
2021/11/12 14:27:55;;;;;;;11.43;3.40;;;28.20;69.60;;;;;;5145256;27;20015;-47
2021/11/12 14:35:46;;;;;;;10.13;3.53;;;28.30;69.90;;;;;;5145385;27;20045;-47
2021/11/12 14:46:40;;;;;;;9.68;3.60;;;28.40;69.80;;;;;;5145454;28;20047;-45
2021/11/12 14:54:52;;;;;;;8.40;3.85;;;28.50;69.40;;;;;;5148287;27;20030;-50
2021/11/12 15:00:06;;;;;;;12.15;4.10;;;28.50;69.30;;;;;;5149222;27;20023;-45
2021/11/12 15:02:34;;;;;;;;;;;28.60;69.30;;;;;;5149236;27;20019;-53
2021/11/12 15:05:00;;;;;;;10.10;4.47;;;28.60;69.40;;;;;;5148764;27;19903;-49
2021/11/12 15:07:34;;;;;;;7.68;4.93;;;28.60;69.40;;;;;;5148714;27;20086;-48
2021/11/12 15:10:02;;;;;;;10.43;4.53;;;28.60;69.10;;;;;;5148823;27;20027;-46
2021/11/12 15:12:29;;;;;;;10.30;5.18;;;28.60;69.40;;;;;;5148464;27;20094;-54
2021/11/12 15:14:57;;;;;;;11.77;5.00;;;28.60;69.40;;;;;;5148361;27;20019;-52
2021/11/12 15:17:24;;;;;;;10.00;5.05;;;28.70;69.60;;;;;;5148562;27;20015;-49
2021/11/12 15:19:51;;;;;;;10.90;5.75;;;28.70;69.50;;;;;;5149092;27;20295;-51
2021/11/12 15:27:55;;;;;;;13.50;6.20;;;28.70;69.60;;;;;;5146843;27;20042;-49
2021/11/12 15:30:31;;;;;;;14.68;6.05;;;28.80;69.80;;;;;;5143426;27;20015;-47
2021/11/12 15:33:06;;;;;;;28.83;6.53;;;28.80;69.70;;;;;;5148142;27;20027;-46
2021/11/12 15:35:34;;;;;;;15.38;6.55;;;28.80;69.60;;;;;;5148073;27;20380;-56
2021/11/12 15:38:09;;;;;;;16.17;6.50;;;28.80;69.40;;;;;;5147586;27;20023;-49
2021/11/12 15:40:39;;;;;;;12.77;6.03;;;28.90;69.60;;;;;;5147450;27;20033;-52
2021/11/12 15:43:20;;;;;;;12.70;6.13;;;28.90;69.50;;;;;;5147994;27;20030;-51
2021/11/12 15:48:17;;;;;;;13.18;6.30;;;28.90;69.50;;;;;;5147932;27;20027;-47
2021/11/12 15:53:45;;;;;;;13.68;6.20;;;29.00;69.20;;;;;;5128124;27;20078;-50
2021/11/12 15:56:29;;;;;;;13.88;5.90;;;29.00;69.30;;;;;;5147618;27;20203;-50
2021/11/12 16:23:09;;;;;;;12.02;5.55;;;29.20;69.70;;;;;;5147227;27;20022;-52
2021/11/12 16:25:38;;;;;;;10.52;5.63;;;29.20;69.80;;;;;;5146910;27;20094;-53
2021/11/12 16:28:06;;;;;;;12.13;5.93;;;29.20;69.90;;;;;;5146547;27;20098;-54
2021/11/12 16:30:35;;;;;;;12.80;5.20;;;29.30;70.10;;;;;;5146094;27;20019;-50
2021/11/12 16:33:05;;;;;;;10.50;5.88;;;29.30;70.20;;;;;;5146813;27;20086;-49
2021/11/12 16:35:35;;;;;;;13.05;5.72;;;29.30;70.50;;;;;;5146069;27;20253;-46
2021/11/12 16:38:22;;;;;;;12.20;5.55;;;29.30;70.60;;;;;;5146394;27;20047;-46
2021/11/12 16:41:06;;;;;;;11.68;5.20;;;29.30;70.70;;;;;;5145968;27;20046;-54
2021/11/12 16:49:43;;;;;;;16.30;6.10;;;29.30;71.20;;;;;;5108233;27;20097;-49
2021/11/12 16:54:48;;;;;;;14.52;5.65;;;29.30;71.30;;;;;;5146544;27;20250;-52
2021/11/12 17:07:53;;;;;;;14.70;6.20;;;29.40;72.20;;;;;;5145800;27;20298;-53
2021/11/12 17:10:26;;;;;;;10.75;4.90;;;29.40;72.30;;;;;;5145495;27;20315;-51
2021/11/12 17:19:34;;;;;;;8.73;5.57;;;29.50;72.30;;;;;;5145504;27;20025;-49
2021/11/12 17:48:20;;;;;;;14.50;5.55;;;29.60;73.20;;;;;;5145555;27;20078;-46
2021/11/12 17:51:07;;;;;;;16.35;5.70;;;29.60;72.60;;;;;;5145753;27;20019;-52
2021/11/12 18:02:15;;;;;;;13.07;5.80;;;29.60;72.30;;;;;;5145301;28;20061;-49
2021/11/12 21:48:07;;;;;;;639.50;371.65;;;29.50;84.50;;;;;;5103900;28;20369;-54
2021/11/12 21:50:36;;;;;;;549.00;317.98;;;29.50;84.40;;;;;;5113775;28;20308;-57
2021/11/12 21:53:04;;;;;;;407.92;216.63;;;29.50;84.60;;;;;;5124219;28;20048;-49
2021/11/12 21:55:32;;;;;;;269.58;129.65;;;29.40;84.90;;;;;;5118565;28;20035;-53
2021/11/12 21:58:00;;;;;;;134.80;63.88;;;29.40;84.50;;;;;;5113839;28;20327;-48
2021/11/12 22:00:28;;;;;;;124.97;56.42;;;29.40;84.70;;;;;;5117876;28;20231;-54
2021/11/12 22:02:56;;;;;;;89.45;38.72;;;29.40;84.70;;;;;;5120809;28;20031;-54
2021/11/12 22:05:22;;;;;;;153.27;58.97;;;29.40;85.10;;;;;;5121228;28;20027;-54
2021/11/12 22:07:49;;;;;;;141.25;60.80;;;29.40;85.00;;;;;;5124914;28;20320;-56
2021/11/12 22:10:18;;;;;;;105.68;49.50;;;29.40;85.40;;;;;;5107426;28;20091;-49
2021/11/12 22:12:45;;;;;;;102.53;45.42;;;29.30;85.60;;;;;;5108086;28;20079;-50
2021/11/12 22:15:12;;;;;;;110.25;45.22;;;29.30;85.70;;;;;;5107832;28;20213;-53
2021/11/12 22:17:39;;;;;;;153.30;62.10;;;29.30;85.90;;;;;;5107473;28;20044;-52
2021/11/12 22:20:06;;;;;;;170.82;71.10;;;29.30;86.40;;;;;;5107424;28;20020;-54
2021/11/12 22:22:33;;;;;;;167.73;66.75;;;29.30;86.30;;;;;;5107519;28;20016;-49
2021/11/12 22:25:00;;;;;;;104.88;44.45;;;29.30;85.80;;;;;;5106495;28;20047;-47
2021/11/12 22:27:26;;;;;;;100.60;44.50;;;29.30;85.50;;;;;;5107579;28;20083;-54
2021/11/12 22:29:53;;;;;;;109.28;53.47;;;29.30;84.80;;;;;;5106665;28;20016;-49
2021/11/12 22:32:21;;;;;;;111.35;53.05;;;29.30;84.80;;;;;;5106648;28;20023;-53
2021/11/12 22:34:55;;;;;;;101.05;45.08;;;29.30;84.80;;;;;;5108116;28;20022;-48
2021/11/12 22:37:21;;;;;;;120.40;61.70;;;29.40;85.20;;;;;;5105809;28;20204;-49
2021/11/12 22:39:48;;;;;;;503.80;282.02;;;29.40;85.70;;;;;;5105708;28;20027;-54
2021/11/12 22:42:17;;;;;;;207.32;87.22;;;29.40;85.40;;;;;;5105528;28;20366;-47
2021/11/12 22:44:45;;;;;;;126.47;49.35;;;29.30;85.30;;;;;;5105840;28;20019;-53
2021/11/12 22:47:12;;;;;;;137.02;54.58;;;29.30;84.70;;;;;;5105452;28;20043;-49
2021/11/12 22:49:39;;;;;;;132.93;45.15;;;29.30;85.00;;;;;;5105452;28;20020;-47
2021/11/12 22:52:06;;;;;;;137.80;58.13;;;29.30;85.00;;;;;;5105901;28;20032;-53
2021/11/12 22:54:33;;;;;;;147.75;53.83;;;29.30;85.60;;;;;;5107994;28;20031;-51
2021/11/12 22:56:59;;;;;;;148.13;50.05;;;29.30;85.60;;;;;;5107761;28;20012;-48
2021/11/12 22:59:26;;;;;;;135.80;48.17;;;29.30;85.70;;;;;;5107560;28;20048;-54
2021/11/12 23:01:53;;;;;;;138.55;45.60;;;29.30;85.70;;;;;;5107524;28;20226;-51
2021/11/12 23:04:20;;;;;;;109.55;43.20;;;29.30;86.20;;;;;;5107380;28;20265;-49
2021/11/12 23:06:48;;;;;;;85.93;38.00;;;29.30;85.70;;;;;;5107236;28;20031;-43